Time;durP1;ratioP1;P1;durP2;ratioP2;P2;SDS_P1;SDS_P2;PMS_P1;PMS_P2;Temp;Humidity;BMP_temperature;BMP_pressure;BME280_temperature;BME280_humidity;BME280_pressure;Samples;Min_cycle;Max_cycle;Signal;HPM_P1;HPM_P2
2023/03/12 00:02:21;;;;;;;9.05;3.85;;;0.60;99.50;;;;;;4942795;28;20067;-73
2023/03/12 00:04:48;;;;;;;7.60;4.32;;;0.60;99.20;;;;;;4962090;28;20050;-72
2023/03/12 00:07:14;;;;;;;9.52;4.70;;;0.60;99.00;;;;;;4940969;28;20055;-72
2023/03/12 00:09:41;;;;;;;12.18;4.63;;;0.60;99.10;;;;;;4959171;28;20042;-73
2023/03/12 00:12:08;;;;;;;10.95;4.97;;;0.50;99.10;;;;;;4944293;28;20125;-73
2023/03/12 00:14:36;;;;;;;11.32;4.40;;;0.50;99.30;;;;;;4959162;28;20053;-73
2023/03/12 00:17:03;;;;;;;20.13;4.90;;;0.50;99.00;;;;;;4941389;28;20058;-72
2023/03/12 00:19:29;;;;;;;18.60;4.05;;;0.40;99.00;;;;;;4946118;28;20153;-72
2023/03/12 00:21:56;;;;;;;20.33;4.68;;;0.40;99.40;;;;;;4944250;28;20062;-72
2023/03/12 00:24:23;;;;;;;10.20;4.45;;;0.30;99.40;;;;;;4961992;28;20054;-72
2023/03/12 00:26:50;;;;;;;7.57;3.60;;;0.30;99.50;;;;;;4943471;28;20137;-72
2023/03/12 00:29:17;;;;;;;14.27;4.50;;;0.20;99.50;;;;;;4960587;28;20133;-72
2023/03/12 00:31:44;;;;;;;7.57;3.90;;;0.10;99.50;;;;;;4957837;28;20043;-72
2023/03/12 00:34:11;;;;;;;11.93;3.92;;;0.00;99.60;;;;;;4940169;28;20133;-71
2023/03/12 00:36:39;;;;;;;12.57;3.85;;;0.00;99.70;;;;;;4959514;28;20046;-72
2023/03/12 00:39:06;;;;;;;9.85;3.58;;;0.00;100.00;;;;;;4960064;28;20042;-72
2023/03/12 00:41:33;;;;;;;12.32;4.25;;;-0.10;100.00;;;;;;4961983;28;20062;-73
2023/03/12 00:44:00;;;;;;;10.93;4.15;;;0.00;100.00;;;;;;4942870;28;20065;-72
2023/03/12 00:46:27;;;;;;;17.17;4.85;;;-0.10;100.00;;;;;;4943984;28;20650;-72
2023/03/12 00:48:54;;;;;;;16.40;3.78;;;-0.10;100.00;;;;;;4944291;28;20191;-73
2023/03/12 00:51:21;;;;;;;9.73;3.97;;;-0.20;100.00;;;;;;4944088;28;20215;-72
2023/03/12 00:53:48;;;;;;;11.10;3.97;;;-0.20;100.00;;;;;;4959217;28;20047;-72
2023/03/12 00:56:15;;;;;;;6.78;4.10;;;-0.20;100.00;;;;;;4944141;28;20057;-72
2023/03/12 00:58:42;;;;;;;9.80;4.00;;;-0.30;100.00;;;;;;4957758;28;20047;-72
2023/03/12 01:01:09;;;;;;;14.52;4.93;;;-0.30;100.00;;;;;;4960928;28;20083;-72
2023/03/12 01:03:36;;;;;;;10.13;4.35;;;-0.30;100.00;;;;;;4959371;28;20047;-72
2023/03/12 01:06:04;;;;;;;14.63;4.57;;;-0.30;100.00;;;;;;4958945;28;20149;-72
2023/03/12 01:08:31;;;;;;;11.25;4.55;;;-0.40;100.00;;;;;;4959803;28;20050;-72
2023/03/12 01:10:58;;;;;;;11.10;4.38;;;-0.40;100.00;;;;;;4961168;28;20061;-73
2023/03/12 01:13:25;;;;;;;7.07;3.50;;;-0.50;100.00;;;;;;4944092;28;20053;-72
2023/03/12 01:15:52;;;;;;;13.75;4.22;;;-0.50;100.00;;;;;;4942302;28;20053;-72
2023/03/12 01:18:19;;;;;;;18.30;4.80;;;-0.60;100.00;;;;;;4960006;28;20053;-72
2023/03/12 01:20:46;;;;;;;11.57;4.22;;;-0.60;100.00;;;;;;4960721;28;20530;-72
2023/03/12 01:23:13;;;;;;;14.40;3.88;;;-0.60;100.00;;;;;;4959811;28;20055;-72
2023/03/12 01:25:40;;;;;;;12.35;4.15;;;-0.70;100.00;;;;;;4946043;28;20053;-72
2023/03/12 01:28:07;;;;;;;8.27;3.72;;;-0.80;100.00;;;;;;4941370;28;20054;-73
2023/03/12 01:30:34;;;;;;;12.52;4.43;;;-0.80;100.00;;;;;;4940292;28;20050;-72
2023/03/12 01:33:01;;;;;;;9.82;4.20;;;-0.80;100.00;;;;;;4960485;28;20058;-72
2023/03/12 01:35:28;;;;;;;16.20;4.03;;;-0.90;100.00;;;;;;4961209;28;20046;-72
2023/03/12 01:37:55;;;;;;;11.93;4.40;;;-1.00;100.00;;;;;;4943196;28;20679;-72
2023/03/12 01:40:24;;;;;;;8.75;4.30;;;-1.10;100.00;;;;;;4960363;28;20107;-72
2023/03/12 01:42:53;;;;;;;10.68;4.13;;;-1.10;100.00;;;;;;4962455;28;20839;-72
2023/03/12 01:46:00;;;;;;;12.73;4.70;;;-1.20;100.00;;;;;;4945420;28;20050;-72
2023/03/12 01:48:36;;;;;;;7.38;4.05;;;-1.20;100.00;;;;;;4964405;28;20050;-72
2023/03/12 01:51:04;;;;;;;16.58;4.63;;;-1.20;100.00;;;;;;4964733;28;20738;-72
2023/03/12 01:53:32;;;;;;;11.13;4.00;;;-1.20;100.00;;;;;;4961845;28;20143;-72
2023/03/12 01:56:00;;;;;;;19.55;5.13;;;-1.30;100.00;;;;;;4947403;28;20070;-72
2023/03/12 01:58:29;;;;;;;14.23;4.55;;;-1.30;100.00;;;;;;4961465;28;20051;-72
2023/03/12 02:00:56;;;;;;;9.93;4.40;;;-1.30;100.00;;;;;;4962230;28;20053;-72
2023/03/12 02:03:23;;;;;;;9.63;4.82;;;-1.40;100.00;;;;;;4965383;28;20175;-72
2023/03/12 02:05:59;;;;;;;9.35;5.18;;;-1.40;100.00;;;;;;4963999;28;20127;-72
2023/03/12 02:08:26;;;;;;;13.32;5.07;;;-1.40;100.00;;;;;;4961531;28;20223;-72
2023/03/12 02:10:53;;;;;;;12.23;4.85;;;-1.50;100.00;;;;;;4962163;28;20150;-72
2023/03/12 02:13:20;;;;;;;19.17;5.60;;;-1.50;100.00;;;;;;4961702;28;20055;-72
2023/03/12 02:15:47;;;;;;;11.60;4.53;;;-1.50;100.00;;;;;;4945005;28;20054;-72
2023/03/12 02:18:17;;;;;;;21.45;5.57;;;-1.50;100.00;;;;;;4962702;28;20053;-72
2023/03/12 02:21:02;;;;;;;13.68;4.75;;;-1.50;100.00;;;;;;4960691;28;20153;-72
2023/03/12 02:23:56;;;;;;;15.32;5.47;;;-1.50;100.00;;;;;;4951396;28;20051;-72
2023/03/12 02:26:24;;;;;;;28.40;6.05;;;-1.50;100.00;;;;;;4937460;28;20055;-72
2023/03/12 02:28:53;;;;;;;17.92;4.75;;;-1.40;100.00;;;;;;4961073;28;20066;-72
2023/03/12 02:31:23;;;;;;;13.00;5.10;;;-1.50;100.00;;;;;;4962875;28;20062;-72
2023/03/12 02:33:52;;;;;;;20.02;6.25;;;-1.40;100.00;;;;;;4944324;28;20142;-72
2023/03/12 02:36:19;;;;;;;26.55;5.70;;;-1.40;100.00;;;;;;4962258;28;20050;-72
2023/03/12 02:38:47;;;;;;;15.15;5.53;;;-1.40;100.00;;;;;;4959259;28;20151;-72
2023/03/12 02:41:21;;;;;;;15.30;5.70;;;-1.40;100.00;;;;;;4963161;28;20154;-72
2023/03/12 02:43:57;;;;;;;8.50;4.80;;;-1.30;100.00;;;;;;4961767;28;20051;-72
2023/03/12 02:46:24;;;;;;;12.80;5.15;;;-1.20;100.00;;;;;;4946087;28;20066;-72
2023/03/12 02:48:52;;;;;;;17.85;6.72;;;-1.20;100.00;;;;;;4961136;28;20059;-72
2023/03/12 02:51:19;;;;;;;23.35;5.07;;;-1.20;100.00;;;;;;4964309;28;20058;-72
2023/03/12 02:53:46;;;;;;;14.05;5.72;;;-1.10;100.00;;;;;;4960921;28;20078;-73
2023/03/12 02:56:13;;;;;;;17.67;6.68;;;-1.10;100.00;;;;;;4961636;28;20137;-73
2023/03/12 02:58:41;;;;;;;16.25;6.18;;;-1.10;100.00;;;;;;4961535;28;20051;-72
2023/03/12 03:01:08;;;;;;;17.52;6.70;;;-1.10;100.00;;;;;;4961985;28;20062;-73
2023/03/12 03:03:35;;;;;;;18.77;6.15;;;-1.10;100.00;;;;;;4962148;28;20089;-73
2023/03/12 03:06:02;;;;;;;18.38;7.10;;;-1.10;100.00;;;;;;4962043;28;20142;-72
2023/03/12 03:08:29;;;;;;;18.88;6.82;;;-1.10;100.00;;;;;;4960860;28;20122;-73
2023/03/12 03:10:56;;;;;;;21.65;6.82;;;-1.10;100.00;;;;;;4961500;28;20054;-72
2023/03/12 03:13:23;;;;;;;24.70;6.63;;;-1.10;100.00;;;;;;4961282;28;20591;-72
2023/03/12 03:15:49;;;;;;;14.43;6.60;;;-1.20;100.00;;;;;;4961428;28;20057;-72
2023/03/12 03:18:16;;;;;;;25.05;7.00;;;-1.20;100.00;;;;;;4962347;28;20047;-72
2023/03/12 03:20:43;;;;;;;15.93;6.80;;;-1.20;100.00;;;;;;4957644;28;20484;-73
2023/03/12 03:23:10;;;;;;;13.68;6.10;;;-1.30;100.00;;;;;;4945067;28;20065;-72
2023/03/12 03:25:37;;;;;;;19.90;6.30;;;-1.30;100.00;;;;;;4946009;28;20065;-72
2023/03/12 03:28:04;;;;;;;17.85;6.03;;;-1.30;100.00;;;;;;4945846;28;20559;-73
2023/03/12 03:30:31;;;;;;;14.05;6.53;;;-1.40;100.00;;;;;;4960860;28;20581;-73
2023/03/12 03:32:58;;;;;;;19.55;6.20;;;-1.50;100.00;;;;;;4944441;28;20396;-73
2023/03/12 03:35:25;;;;;;;21.55;6.82;;;-1.50;100.00;;;;;;4962805;28;20049;-72
2023/03/12 03:37:52;;;;;;;17.27;6.65;;;-1.60;100.00;;;;;;4963519;28;20054;-73
2023/03/12 03:40:19;;;;;;;18.05;6.43;;;-1.60;100.00;;;;;;4944353;28;20057;-73
2023/03/12 03:42:46;;;;;;;22.65;6.32;;;-1.70;100.00;;;;;;4962715;28;20061;-73
2023/03/12 03:45:13;;;;;;;19.98;7.82;;;-1.70;100.00;;;;;;4963015;28;20050;-73
2023/03/12 03:47:40;;;;;;;15.30;6.30;;;-1.70;100.00;;;;;;4963234;28;20046;-73
2023/03/12 03:50:08;;;;;;;19.15;6.22;;;-1.80;100.00;;;;;;4952018;28;20058;-70
2023/03/12 03:52:34;;;;;;;14.93;6.13;;;-1.80;100.00;;;;;;4963271;28;20053;-70
2023/03/12 03:55:02;;;;;;;27.50;7.18;;;-1.80;100.00;;;;;;4961038;28;20082;-70
2023/03/12 03:57:29;;;;;;;28.77;6.13;;;-1.90;100.00;;;;;;4957081;28;20111;-71
2023/03/12 03:59:57;;;;;;;20.75;6.00;;;-1.90;100.00;;;;;;4961320;28;20062;-70
2023/03/12 04:02:27;;;;;;;21.27;5.93;;;-1.90;100.00;;;;;;4961753;28;20754;-70
2023/03/12 04:04:57;;;;;;;12.98;6.13;;;-1.90;100.00;;;;;;4962569;28;20054;-70
2023/03/12 04:07:25;;;;;;;22.65;6.20;;;-1.90;100.00;;;;;;4963470;28;20562;-71
2023/03/12 04:09:52;;;;;;;22.00;6.30;;;-1.90;100.00;;;;;;4962318;28;20066;-70
2023/03/12 04:12:19;;;;;;;22.95;6.60;;;-1.90;100.00;;;;;;4963414;28;20078;-70
2023/03/12 04:14:46;;;;;;;13.32;5.85;;;-1.90;100.00;;;;;;4944622;28;20043;-70
2023/03/12 04:17:13;;;;;;;18.48;5.90;;;-1.90;100.00;;;;;;4945597;28;20050;-70
2023/03/12 04:19:40;;;;;;;20.42;6.03;;;-1.90;100.00;;;;;;4950299;28;20055;-70
2023/03/12 04:22:07;;;;;;;15.32;5.05;;;-1.90;100.00;;;;;;4963585;28;20051;-70
2023/03/12 04:24:34;;;;;;;20.88;5.85;;;-1.90;100.00;;;;;;4965064;28;20046;-70
2023/03/12 04:27:00;;;;;;;13.00;5.07;;;-1.90;100.00;;;;;;4963379;28;20054;-70
2023/03/12 04:29:27;;;;;;;23.25;6.03;;;-2.00;100.00;;;;;;4962340;28;20050;-70
2023/03/12 04:31:54;;;;;;;23.60;5.93;;;-2.00;100.00;;;;;;4962464;28;20050;-70
2023/03/12 04:34:21;;;;;;;16.55;6.00;;;-2.00;100.00;;;;;;4961881;28;20162;-70
2023/03/12 04:36:48;;;;;;;17.10;6.63;;;-2.00;100.00;;;;;;4963064;28;20050;-70
2023/03/12 04:39:19;;;;;;;19.67;5.75;;;-2.10;100.00;;;;;;4962065;28;20061;-71
2023/03/12 04:41:46;;;;;;;21.77;5.32;;;-2.10;100.00;;;;;;4962917;28;20051;-70
2023/03/12 04:44:13;;;;;;;18.15;5.30;;;-2.20;100.00;;;;;;4962241;28;20050;-71
2023/03/12 04:46:41;;;;;;;29.17;5.28;;;-2.20;100.00;;;;;;4963511;28;20054;-71
2023/03/12 04:49:08;;;;;;;19.95;5.45;;;-2.20;100.00;;;;;;4941754;28;20039;-70
2023/03/12 04:51:35;;;;;;;16.20;5.82;;;-2.20;100.00;;;;;;4964091;28;20054;-71
2023/03/12 04:54:02;;;;;;;23.45;5.65;;;-2.20;100.00;;;;;;4955815;28;20057;-70
2023/03/12 04:56:28;;;;;;;15.95;5.00;;;-2.20;100.00;;;;;;4947122;28;20053;-71
2023/03/12 04:58:55;;;;;;;16.35;5.32;;;-2.20;100.00;;;;;;4963192;28;20535;-70
2023/03/12 05:01:31;;;;;;;22.95;5.43;;;-2.20;100.00;;;;;;4962631;28;20420;-70
2023/03/12 05:03:58;;;;;;;13.50;5.40;;;-2.20;100.00;;;;;;4958104;28;20050;-70
2023/03/12 05:06:25;;;;;;;26.05;5.45;;;-2.10;100.00;;;;;;4957170;28;20094;-70
2023/03/12 05:08:52;;;;;;;12.00;5.10;;;-2.20;100.00;;;;;;4956210;28;20062;-70
2023/03/12 05:11:19;;;;;;;12.20;4.97;;;-2.10;100.00;;;;;;4960991;28;20788;-70
2023/03/12 05:13:47;;;;;;;20.67;5.78;;;-2.20;100.00;;;;;;4965565;23;20047;-73
2023/03/12 05:16:15;;;;;;;16.02;4.40;;;-2.10;100.00;;;;;;4955233;28;20810;-71
2023/03/12 05:18:42;;;;;;;16.88;5.15;;;-2.20;100.00;;;;;;4965292;28;20545;-72
2023/03/12 05:21:18;;;;;;;23.80;4.47;;;-2.30;100.00;;;;;;4966292;28;20110;-73
2023/03/12 05:23:46;;;;;;;15.18;4.13;;;-2.30;100.00;;;;;;4943466;28;20062;-74
2023/03/12 05:26:22;;;;;;;9.82;4.53;;;-2.30;100.00;;;;;;4962861;28;20093;-74
2023/03/12 05:28:49;;;;;;;13.65;4.75;;;-2.30;100.00;;;;;;4964113;28;20053;-73
2023/03/12 05:31:16;;;;;;;12.02;4.45;;;-2.30;100.00;;;;;;4943845;28;20280;-74
2023/03/12 05:33:44;;;;;;;15.30;4.82;;;-2.30;100.00;;;;;;4962693;28;20145;-74
2023/03/12 05:36:11;;;;;;;14.05;4.68;;;-2.30;100.00;;;;;;4951943;28;20051;-74
2023/03/12 05:38:39;;;;;;;20.90;5.57;;;-2.30;100.00;;;;;;4950886;28;20069;-74
2023/03/12 05:41:05;;;;;;;15.38;5.15;;;-2.40;100.00;;;;;;4961352;28;20050;-74
2023/03/12 05:43:33;;;;;;;12.35;4.93;;;-2.40;100.00;;;;;;4963854;28;20057;-74
2023/03/12 05:46:02;;;;;;;19.75;4.82;;;-2.40;100.00;;;;;;4962101;28;20142;-74
2023/03/12 05:48:30;;;;;;;23.75;5.03;;;-2.50;100.00;;;;;;4944613;28;20143;-74
2023/03/12 05:50:57;;;;;;;14.73;4.20;;;-2.50;100.00;;;;;;4956424;28;20423;-74
2023/03/12 05:53:24;;;;;;;16.52;5.47;;;-2.50;100.00;;;;;;4963976;28;20499;-74
2023/03/12 05:55:50;;;;;;;12.25;4.40;;;-2.50;100.00;;;;;;4941837;28;20059;-73
2023/03/12 05:58:17;;;;;;;15.13;4.30;;;-2.50;100.00;;;;;;4962500;28;20051;-74
2023/03/12 06:00:44;;;;;;;18.00;5.22;;;-2.50;100.00;;;;;;4961166;28;20827;-74
2023/03/12 06:03:12;;;;;;;15.73;4.30;;;-2.50;100.00;;;;;;4959138;28;20055;-74
2023/03/12 06:05:39;;;;;;;13.10;5.05;;;-2.40;100.00;;;;;;4960771;28;20047;-74
2023/03/12 06:08:06;;;;;;;19.85;5.10;;;-2.40;100.00;;;;;;4962486;28;20129;-74
2023/03/12 06:10:33;;;;;;;15.27;4.55;;;-2.40;100.00;;;;;;4948937;28;20047;-74
2023/03/12 06:13:00;;;;;;;12.10;4.78;;;-2.40;100.00;;;;;;4945611;28;20574;-74
2023/03/12 06:15:27;;;;;;;13.50;4.70;;;-2.30;100.00;;;;;;4954696;28;20060;-73
2023/03/12 06:17:53;;;;;;;15.98;4.53;;;-2.30;100.00;;;;;;4964028;28;20055;-74
2023/03/12 06:20:21;;;;;;;22.05;5.38;;;-2.30;100.00;;;;;;4960751;28;20054;-74
2023/03/12 06:22:48;;;;;;;18.85;5.20;;;-2.30;100.00;;;;;;4968571;28;20054;-74
2023/03/12 06:25:15;;;;;;;15.57;5.32;;;-2.20;100.00;;;;;;4972690;28;20050;-74
2023/03/12 06:27:41;;;;;;;27.27;6.07;;;-2.10;100.00;;;;;;4975071;28;20062;-74
2023/03/12 06:30:09;;;;;;;23.38;5.90;;;-2.10;100.00;;;;;;4964317;28;20055;-74
2023/03/12 06:32:36;;;;;;;18.98;7.35;;;-2.00;100.00;;;;;;4953631;28;20456;-74
2023/03/12 06:35:04;;;;;;;22.02;6.75;;;-1.90;100.00;;;;;;4952201;28;20310;-74
2023/03/12 06:37:31;;;;;;;32.20;7.53;;;-1.70;100.00;;;;;;4959025;28;20050;-74
2023/03/12 06:39:58;;;;;;;16.73;6.43;;;-1.40;100.00;;;;;;4966614;28;20055;-75
2023/03/12 06:42:25;;;;;;;23.65;7.22;;;-1.20;100.00;;;;;;4949919;28;20055;-75
2023/03/12 06:44:52;;;;;;;19.10;7.30;;;-1.00;100.00;;;;;;4944889;28;20669;-75
2023/03/12 06:47:19;;;;;;;15.77;6.57;;;-0.70;100.00;;;;;;4973040;28;20059;-74
2023/03/12 06:49:46;;;;;;;19.58;7.13;;;-0.60;100.00;;;;;;4961339;28;20058;-74
2023/03/12 06:52:13;;;;;;;21.02;7.35;;;-0.50;100.00;;;;;;4970533;28;20113;-72
2023/03/12 06:54:39;;;;;;;28.65;7.55;;;-0.50;100.00;;;;;;4958314;28;20073;-72
2023/03/12 06:59:50;;;;;;;19.45;8.27;;;0.40;100.00;;;;;;4919872;29;20075;-68
2023/03/12 07:02:17;;;;;;;18.02;6.90;;;1.30;97.90;;;;;;4922533;29;20056;-69
2023/03/12 07:04:44;;;;;;;25.20;7.85;;;1.50;95.00;;;;;;4922939;29;20142;-68
2023/03/12 07:07:11;;;;;;;29.85;8.48;;;1.60;94.60;;;;;;4921592;29;20560;-68
2023/03/12 07:09:37;;;;;;;19.05;7.78;;;2.10;94.00;;;;;;4918727;29;20048;-68
2023/03/12 07:12:04;;;;;;;22.40;8.57;;;2.80;90.30;;;;;;4917526;29;20078;-68
2023/03/12 07:14:31;;;;;;;26.90;8.80;;;3.70;86.80;;;;;;4921634;29;20052;-68
2023/03/12 07:17:00;;;;;;;19.38;8.85;;;4.30;83.60;;;;;;4903683;29;20527;-69
2023/03/12 07:19:29;;;;;;;21.05;8.60;;;4.50;81.70;;;;;;4903376;29;20052;-67
2023/03/12 07:21:56;;;;;;;21.85;8.07;;;4.60;80.50;;;;;;4922660;29;20425;-67
2023/03/12 07:24:23;;;;;;;20.85;8.43;;;4.80;79.30;;;;;;4924981;29;20090;-67
2023/03/12 07:29:49;;;;;;;18.90;8.20;;;4.10;81.10;;;;;;4997109;28;20077;-68
2023/03/12 07:32:16;;;;;;;17.13;7.18;;;4.10;80.70;;;;;;4995359;28;20057;-68
2023/03/12 07:34:43;;;;;;;17.73;8.60;;;3.80;82.80;;;;;;4993609;28;20782;-68
2023/03/12 07:37:10;;;;;;;19.25;8.10;;;3.90;82.70;;;;;;4997268;28;20636;-70
2023/03/12 07:39:36;;;;;;;21.58;8.13;;;4.10;82.50;;;;;;4994356;28;20072;-70
2023/03/12 07:42:03;;;;;;;18.90;8.07;;;4.60;81.00;;;;;;4998011;28;20112;-68
2023/03/12 07:44:31;;;;;;;16.83;7.95;;;4.90;79.70;;;;;;4994073;28;20045;-69
2023/03/12 07:46:57;;;;;;;25.42;8.52;;;5.40;77.70;;;;;;4996166;28;20049;-69
2023/03/12 07:49:35;;;;;;;18.95;7.35;;;5.90;76.90;;;;;;4993216;28;20117;-71
2023/03/12 07:52:03;;;;;;;20.13;7.72;;;6.50;74.00;;;;;;4996638;28;20418;-72
2023/03/12 07:54:30;;;;;;;22.17;8.40;;;7.50;71.60;;;;;;4990978;28;20049;-71
2023/03/12 07:56:57;;;;;;;19.27;7.90;;;7.50;70.60;;;;;;4996742;28;20492;-71
2023/03/12 07:59:25;;;;;;;16.83;7.68;;;7.30;69.00;;;;;;4987134;28;20821;-69
2023/03/12 08:01:53;;;;;;;21.13;8.63;;;6.90;69.90;;;;;;4993286;28;20045;-71
2023/03/12 08:04:22;;;;;;;24.75;9.15;;;6.30;71.20;;;;;;4992598;28;20080;-72
2023/03/12 08:06:49;;;;;;;21.17;8.30;;;5.70;72.40;;;;;;4995275;28;20054;-70
2023/03/12 08:09:16;;;;;;;22.90;8.93;;;4.80;73.80;;;;;;5010214;28;20076;-71
2023/03/12 08:11:43;;;;;;;16.15;7.65;;;4.50;76.30;;;;;;4992448;28;20065;-71
2023/03/12 08:14:10;;;;;;;17.05;8.00;;;4.30;77.50;;;;;;4995862;28;20505;-72
2023/03/12 08:16:37;;;;;;;22.55;7.88;;;4.20;77.60;;;;;;4994971;28;20116;-71
2023/03/12 08:19:04;;;;;;;21.05;9.18;;;4.20;78.60;;;;;;4993148;28;20083;-73
2023/03/12 08:21:31;;;;;;;22.83;8.75;;;4.30;78.60;;;;;;4995586;28;20049;-71
2023/03/12 08:23:57;;;;;;;17.27;7.63;;;4.50;78.60;;;;;;4989711;28;20345;-71
2023/03/12 08:26:24;;;;;;;19.23;7.57;;;4.50;78.00;;;;;;5006131;28;20498;-73
2023/03/12 08:28:51;;;;;;;19.30;7.20;;;4.50;77.90;;;;;;4988970;28;20467;-72
2023/03/12 08:31:18;;;;;;;20.48;7.90;;;4.70;76.90;;;;;;4994690;28;20065;-70
2023/03/12 08:33:45;;;;;;;16.75;7.55;;;4.70;76.10;;;;;;4992247;28;20053;-70
2023/03/12 08:36:13;;;;;;;23.27;8.52;;;4.90;76.00;;;;;;4995384;28;20304;-71
2023/03/12 08:38:40;;;;;;;18.83;7.97;;;5.00;75.60;;;;;;4992056;28;20462;-72
2023/03/12 08:41:07;;;;;;;20.98;8.23;;;5.00;75.90;;;;;;4992080;28;20113;-72
2023/03/12 08:46:49;;;;;;;17.63;7.63;;;5.20;74.50;;;;;;4974836;28;20046;-72
2023/03/12 08:49:16;;;;;;;17.65;7.57;;;5.20;74.40;;;;;;4958772;28;20050;-72
2023/03/12 08:51:43;;;;;;;16.33;7.53;;;5.00;74.30;;;;;;4974922;28;20139;-72
2023/03/12 08:54:10;;;;;;;18.40;7.88;;;4.80;73.70;;;;;;4971890;28;20050;-72
2023/03/12 08:56:40;;;;;;;54.15;12.10;;;4.70;76.30;;;;;;4959432;28;20065;-73
2023/03/12 08:59:09;;;;;;;27.83;8.13;;;4.70;75.90;;;;;;4960341;28;20050;-73
2023/03/12 09:01:36;;;;;;;18.80;7.60;;;4.50;76.50;;;;;;4977465;28;20085;-75
2023/03/12 09:04:04;;;;;;;24.40;8.02;;;4.60;76.20;;;;;;4976853;28;20376;-74
2023/03/12 09:06:34;;;;;;;22.45;8.93;;;4.90;75.30;;;;;;4972905;28;20058;-74
2023/03/12 09:09:04;;;;;;;18.40;7.97;;;5.10;75.10;;;;;;4957552;28;20451;-74
2023/03/12 09:11:32;;;;;;;19.00;7.38;;;5.20;76.70;;;;;;4973878;28;20267;-72
2023/03/12 09:14:00;;;;;;;19.33;8.27;;;5.50;75.40;;;;;;4975444;28;20510;-72
2023/03/12 09:16:47;;;;;;;18.05;7.80;;;5.80;73.40;;;;;;4961834;28;20054;-73
2023/03/12 09:19:15;;;;;;;15.20;7.30;;;5.90;74.40;;;;;;4973279;28;20108;-73
2023/03/12 09:21:42;;;;;;;14.27;6.82;;;6.80;71.70;;;;;;4956182;28;20133;-73
2023/03/12 09:24:10;;;;;;;16.27;7.25;;;7.00;68.40;;;;;;4975288;28;20064;-74
2023/03/12 09:26:37;;;;;;;16.10;6.68;;;7.10;68.70;;;;;;4959121;28;20085;-74
2023/03/12 09:29:04;;;;;;;19.70;7.22;;;6.80;67.70;;;;;;4975073;28;20136;-75
2023/03/12 09:31:31;;;;;;;13.93;6.22;;;6.20;69.90;;;;;;4958558;28;20054;-75
2023/03/12 09:33:58;;;;;;;16.73;6.93;;;6.00;70.50;;;;;;4976373;28;20340;-75
2023/03/12 09:36:25;;;;;;;13.32;6.80;;;5.90;71.30;;;;;;4978005;28;20046;-73
2023/03/12 09:38:54;;;;;;;13.68;6.03;;;5.80;72.40;;;;;;4977093;28;20054;-76
2023/03/12 09:41:26;;;;;;;19.05;6.82;;;6.10;72.30;;;;;;4976188;28;20491;-73
2023/03/12 09:44:02;;;;;;;16.88;6.47;;;6.50;71.00;;;;;;4974537;28;20496;-75
2023/03/12 09:46:36;;;;;;;16.52;6.60;;;6.90;71.80;;;;;;4977456;28;20052;-73
2023/03/12 09:49:10;;;;;;;14.38;6.03;;;7.20;69.30;;;;;;4975465;28;20054;-74
2023/03/12 09:51:50;;;;;;;14.85;6.72;;;7.40;69.20;;;;;;4960283;28;20102;-74
2023/03/12 09:54:40;;;;;;;16.85;6.53;;;7.90;70.60;;;;;;4960997;28;20070;-74
2023/03/12 09:57:22;;;;;;;15.38;6.13;;;9.10;66.20;;;;;;4975097;28;20050;-74
2023/03/12 09:59:51;;;;;;;10.63;5.30;;;9.50;62.20;;;;;;4976107;28;20738;-74
2023/03/12 10:02:59;;;;;;;9.73;5.15;;;10.40;62.20;;;;;;4977042;28;20542;-74
2023/03/12 10:05:35;;;;;;;15.18;5.53;;;11.00;59.50;;;;;;4978487;28;20080;-75
2023/03/12 10:08:28;;;;;;;10.85;4.55;;;11.10;59.60;;;;;;4977423;28;20050;-74
2023/03/12 10:11:38;;;;;;;8.60;4.68;;;11.30;57.20;;;;;;4974773;28;20089;-75
2023/03/12 10:14:24;;;;;;;8.45;4.32;;;11.90;56.90;;;;;;4882936;29;20048;-75
2023/03/12 10:16:54;;;;;;;7.32;4.43;;;13.00;53.50;;;;;;4972912;28;20073;-75
2023/03/12 10:19:36;;;;;;;10.80;4.80;;;13.10;55.10;;;;;;4981699;28;20550;-75
2023/03/12 10:22:10;;;;;;;8.18;4.20;;;12.10;56.20;;;;;;4982550;28;20427;-75
2023/03/12 10:24:40;;;;;;;13.63;5.20;;;12.20;55.60;;;;;;4973088;28;20057;-75
2023/03/12 10:27:17;;;;;;;11.73;4.93;;;11.90;55.90;;;;;;4980094;28;20054;-75
2023/03/12 10:29:48;;;;;;;10.90;5.65;;;11.60;56.70;;;;;;4979156;28;20141;-75
2023/03/12 10:32:23;;;;;;;10.70;4.65;;;10.80;57.30;;;;;;4961624;28;20050;-75
2023/03/12 10:34:57;;;;;;;7.25;4.53;;;10.60;57.40;;;;;;4976496;28;20074;-76
2023/03/12 10:37:37;;;;;;;10.32;4.38;;;9.50;57.90;;;;;;4982369;28;20164;-75
2023/03/12 10:40:16;;;;;;;7.70;3.78;;;8.80;61.50;;;;;;4981876;28;20053;-75
2023/03/12 10:42:43;;;;;;;7.00;3.35;;;8.20;61.20;;;;;;4956331;28;20510;-75
2023/03/12 10:45:10;;;;;;;8.60;3.95;;;7.80;63.90;;;;;;4981596;28;20057;-75
2023/03/12 10:47:42;;;;;;;11.32;3.90;;;7.60;64.60;;;;;;4983324;28;20058;-75
2023/03/12 10:50:17;;;;;;;8.35;3.65;;;7.60;66.60;;;;;;4980707;28;20924;-74
2023/03/12 10:52:46;;;;;;;10.05;3.47;;;8.20;63.10;;;;;;4967738;28;20085;-73
2023/03/12 10:55:25;;;;;;;9.70;3.10;;;8.10;61.60;;;;;;4976861;28;20054;-73
2023/03/12 10:57:53;;;;;;;10.38;3.63;;;7.60;63.70;;;;;;4961447;28;20771;-73
2023/03/12 11:00:26;;;;;;;9.63;3.20;;;7.60;63.30;;;;;;4981548;28;20142;-74
2023/03/12 11:03:18;;;;;;;12.90;3.15;;;8.00;66.20;;;;;;4966930;28;20140;-74
2023/03/12 11:05:48;;;;;;;9.32;3.38;;;8.30;61.80;;;;;;4979799;28;20050;-74
2023/03/12 11:08:26;;;;;;;10.80;3.63;;;8.70;62.90;;;;;;4978883;28;20461;-74
2023/03/12 11:10:55;;;;;;;8.48;2.40;;;9.00;60.40;;;;;;4981530;28;20097;-74
2023/03/12 11:13:34;;;;;;;5.88;2.55;;;9.40;59.00;;;;;;4962605;28;20054;-74
2023/03/12 11:16:15;;;;;;;7.03;2.53;;;9.10;61.20;;;;;;4979575;28;20531;-74
2023/03/12 11:18:58;;;;;;;5.18;2.22;;;9.00;60.10;;;;;;4964267;28;20423;-74
2023/03/12 11:21:25;;;;;;;8.05;2.10;;;8.50;59.30;;;;;;4981236;28;20046;-74
2023/03/12 11:23:55;;;;;;;31.50;4.90;;;8.50;60.20;;;;;;4978400;28;20047;-75
2023/03/12 11:26:32;;;;;;;5.63;2.03;;;8.20;60.60;;;;;;4980786;28;20046;-74
2023/03/12 11:29:11;;;;;;;5.53;1.55;;;8.20;60.70;;;;;;4979155;28;20058;-73
2023/03/12 11:31:52;;;;;;;10.18;1.80;;;7.90;60.30;;;;;;4962933;28;20120;-74
2023/03/12 11:34:27;;;;;;;3.80;1.70;;;8.00;59.70;;;;;;4979688;28;20189;-74
2023/03/12 11:37:12;;;;;;;4.38;1.65;;;8.00;60.40;;;;;;4977783;28;20112;-73
2023/03/12 11:39:55;;;;;;;3.50;1.13;;;7.90;61.00;;;;;;4980592;28;20491;-74
2023/03/12 11:42:37;;;;;;;4.95;1.77;;;8.00;60.60;;;;;;4980215;28;20101;-72
2023/03/12 11:45:20;;;;;;;5.18;0.93;;;7.90;61.70;;;;;;4981181;28;20056;-72
2023/03/12 11:48:01;;;;;;;4.95;1.05;;;7.40;62.90;;;;;;4962426;28;20047;-72
2023/03/12 11:50:43;;;;;;;2.97;1.15;;;7.10;63.10;;;;;;4982429;28;20132;-72
2023/03/12 11:53:38;;;;;;;7.28;1.27;;;7.00;62.60;;;;;;4964825;28;20046;-71
2023/03/12 11:56:44;;;;;;;9.25;1.27;;;7.40;63.00;;;;;;4962098;28;20053;-72
2023/03/12 11:59:44;;;;;;;6.07;1.30;;;7.60;63.00;;;;;;4979827;28;20046;-74
2023/03/12 12:02:32;;;;;;;5.32;0.85;;;8.20;63.40;;;;;;4978992;28;20046;-72
2023/03/12 12:05:18;;;;;;;12.20;1.48;;;8.60;61.50;;;;;;4980253;28;20054;-72
2023/03/12 12:08:02;;;;;;;4.93;1.83;;;8.70;63.00;;;;;;4962723;28;20058;-72
2023/03/12 12:10:32;;;;;;;8.93;1.80;;;8.10;61.60;;;;;;4962886;28;20054;-72
2023/03/12 12:13:08;;;;;;;4.28;1.67;;;7.80;62.10;;;;;;4984663;28;20057;-72
2023/03/12 12:15:35;;;;;;;4.50;1.33;;;7.70;62.90;;;;;;4979212;28;20050;-71
2023/03/12 12:18:17;;;;;;;6.15;1.33;;;7.90;63.10;;;;;;4962079;28;20866;-71
2023/03/12 12:20:50;;;;;;;5.00;1.60;;;8.00;63.10;;;;;;4963475;28;21136;-71
2023/03/12 12:23:50;;;;;;;5.55;1.92;;;7.90;62.20;;;;;;4964155;28;20042;-71
2023/03/12 12:26:37;;;;;;;8.95;2.00;;;7.70;61.30;;;;;;4939539;28;20596;-73
2023/03/12 12:29:25;;;;;;;7.00;1.92;;;7.50;63.30;;;;;;4980801;28;20426;-72
2023/03/12 12:31:58;;;;;;;7.25;2.15;;;7.00;63.20;;;;;;4981537;28;20050;-71
2023/03/12 12:39:00;;;;;;;9.85;2.50;;;6.80;63.80;;;;;;4988007;28;20053;-71
2023/03/12 12:41:32;;;;;;;13.60;2.33;;;6.30;65.00;;;;;;4934344;28;20152;-72
2023/03/12 12:46:57;;;;;;;9.27;2.50;;;6.00;66.70;;;;;;4978540;28;20050;-73
2023/03/12 12:49:38;;;;;;;7.50;2.22;;;5.90;68.60;;;;;;4972015;28;20054;-74
2023/03/12 12:52:10;;;;;;;8.38;2.45;;;6.10;68.10;;;;;;4974878;28;20057;-78
2023/03/12 12:54:57;;;;;;;11.15;2.50;;;6.40;68.30;;;;;;4972257;28;20141;-76
2023/03/12 12:57:39;;;;;;;6.47;2.25;;;6.40;65.80;;;;;;4979173;28;20053;-73
2023/03/12 13:00:28;;;;;;;11.35;2.70;;;6.20;66.30;;;;;;4975489;28;20055;-74
2023/03/12 13:02:56;;;;;;;6.95;2.05;;;5.90;67.10;;;;;;4971432;28;20051;-73
2023/03/12 13:05:51;;;;;;;9.80;2.25;;;6.00;67.60;;;;;;4975314;28;20046;-74
2023/03/12 13:08:55;;;;;;;9.10;2.42;;;6.00;68.30;;;;;;4987236;28;20133;-74
2023/03/12 13:11:50;;;;;;;8.65;2.63;;;5.80;67.50;;;;;;4974162;28;20050;-73
2023/03/12 13:14:34;;;;;;;14.82;3.00;;;5.60;69.00;;;;;;4972118;28;20498;-71